Time;durP1;ratioP1;P1;durP2;ratioP2;P2;SDS_P1;SDS_P2;PMS_P1;PMS_P2;Temp;Humidity;BMP_temperature;BMP_pressure;BME280_temperature;BME280_humidity;BME280_pressure;Samples;Min_cycle;Max_cycle;Signal;HPM_P1;HPM_P2
2022/01/16 00:06:18;;;;;;;132.48;4.60;;;;;;;-145.82;100.00;61645.16;4964776;28;20034;-69
2022/01/16 00:08:44;;;;;;;59.85;1.70;;;;;;;-145.82;100.00;61645.16;4962854;28;20430;-69
2022/01/16 00:11:12;;;;;;;36.90;1.67;;;;;;;-145.82;100.00;61645.16;4964005;28;20432;-69
2022/01/16 00:13:37;;;;;;;26.95;1.70;;;;;;;-145.82;100.00;61645.16;3519223;28;10020780;-68
2022/01/16 00:16:03;;;;;;;72.70;3.47;;;;;;;-145.82;100.00;61645.16;1709845;28;10001963;-68
2022/01/16 00:18:40;;;;;;;54.25;2.72;;;;;;;-145.82;100.00;61645.16;4962987;28;20150;-69
2022/01/16 00:21:06;;;;;;;111.13;4.93;;;;;;;-145.82;100.00;61645.16;4964407;28;20066;-69
2022/01/16 00:23:31;;;;;;;175.23;5.32;;;;;;;-145.82;100.00;61645.16;4963993;28;20119;-68
2022/01/16 00:25:57;;;;;;;125.97;12.77;;;;;;;-145.82;100.00;61645.16;4963309;28;20117;-70
2022/01/16 00:28:24;;;;;;;125.78;7.00;;;;;;;-145.82;100.00;61645.16;4962339;28;20038;-68
2022/01/16 00:30:51;;;;;;;102.05;4.10;;;;;;;-145.82;100.00;61645.16;4963965;28;20474;-68
2022/01/16 00:33:17;;;;;;;268.13;11.45;;;;;;;-145.82;100.00;61645.16;4963465;28;20058;-69
2022/01/16 00:35:42;;;;;;;104.05;7.22;;;;;;;-145.82;100.00;61645.16;4964919;28;20489;-68
2022/01/16 00:38:08;;;;;;;167.75;6.50;;;;;;;-145.82;100.00;61645.16;4961548;28;20050;-68
2022/01/16 00:40:34;;;;;;;114.20;4.05;;;;;;;-145.82;100.00;61645.16;4962817;28;20836;-70
2022/01/16 00:43:00;;;;;;;174.90;6.00;;;;;;;-145.82;100.00;61645.16;4962044;28;20125;-68
2022/01/16 00:45:29;;;;;;;124.97;7.85;;;;;;;-145.82;100.00;61645.16;4963646;28;20548;-70
2022/01/16 00:47:55;;;;;;;282.90;9.13;;;;;;;-145.82;100.00;61645.16;4963079;28;20043;-69
2022/01/16 00:50:21;;;;;;;336.70;11.43;;;;;;;-145.82;100.00;61645.16;4963736;28;20046;-69
2022/01/16 00:52:46;;;;;;;250.73;15.25;;;;;;;-145.82;100.00;61645.16;4961978;28;20381;-68
2022/01/16 00:55:14;;;;;;;359.02;17.77;;;;;;;-145.82;100.00;61645.16;4963697;28;20414;-68
2022/01/16 00:57:39;;;;;;;331.02;16.92;;;;;;;-145.82;100.00;61645.16;4962236;28;20478;-68
2022/01/16 01:00:06;;;;;;;385.92;15.55;;;;;;;-145.82;100.00;61645.16;4962198;28;20077;-70
2022/01/16 01:02:32;;;;;;;163.63;5.15;;;;;;;-145.82;100.00;61645.16;4964396;28;20474;-70
2022/01/16 01:04:57;;;;;;;270.27;13.18;;;;;;;-145.82;100.00;61645.16;4961906;28;20069;-68
2022/01/16 01:07:23;;;;;;;86.68;4.22;;;;;;;-145.82;100.00;61645.16;4962030;28;20109;-68
2022/01/16 01:09:48;;;;;;;257.70;11.27;;;;;;;-145.82;100.00;61645.16;4963716;28;20486;-68
2022/01/16 01:12:25;;;;;;;287.25;10.73;;;;;;;-145.82;100.00;61645.16;4961693;28;20089;-69
2022/01/16 01:15:07;;;;;;;460.58;21.83;;;;;;;-145.82;100.00;61645.16;4962805;28;20440;-69
2022/01/16 01:17:37;;;;;;;157.60;5.88;;;;;;;-145.82;100.00;61645.16;4961848;28;20042;-68
2022/01/16 01:20:05;;;;;;;269.75;10.10;;;;;;;-145.82;100.00;61645.16;4963630;28;20037;-70
2022/01/16 01:22:31;;;;;;;337.83;9.10;;;;;;;-145.82;100.00;61645.16;4962544;28;20038;-70
2022/01/16 01:24:56;;;;;;;83.88;4.38;;;;;;;-145.82;100.00;61645.16;4960780;28;20302;-69
2022/01/16 01:27:23;;;;;;;36.65;2.78;;;;;;;-145.82;100.00;61645.16;4962382;28;20102;-68
2022/01/16 01:29:59;;;;;;;153.32;5.93;;;;;;;-145.82;100.00;61645.16;4962307;28;20054;-69
2022/01/16 01:32:25;;;;;;;269.95;8.88;;;;;;;-145.82;100.00;61645.16;4964419;28;20512;-69
2022/01/16 01:34:50;;;;;;;117.97;6.22;;;;;;;-145.82;100.00;61645.16;4963320;28;20053;-69
2022/01/16 01:37:16;;;;;;;149.18;5.40;;;;;;;-145.82;100.00;61645.16;4961117;28;20097;-69
2022/01/16 01:39:41;;;;;;;115.20;6.00;;;;;;;-145.82;100.00;61645.16;4961154;28;20039;-69
2022/01/16 01:42:10;;;;;;;240.23;9.55;;;;;;;-145.82;100.00;61645.16;4964213;28;20089;-69
2022/01/16 01:52:53;;;;;;;171.23;8.57;;;;;;;-145.82;100.00;61645.16;4963675;28;20579;-68
2022/01/16 01:55:19;;;;;;;247.80;9.23;;;;;;;-145.82;100.00;61645.16;4962492;28;20105;-70
2022/01/16 01:57:45;;;;;;;202.88;8.48;;;;;;;-145.82;100.00;61645.16;4961775;28;20482;-68
2022/01/16 02:00:18;;;;;;;235.82;14.00;;;;;;;-145.82;100.00;61645.16;4961933;28;20086;-68
2022/01/16 02:05:28;;;;;;;145.98;7.63;;;;;;;-145.82;100.00;61645.16;4963132;28;20137;-69
2022/01/16 02:07:54;;;;;;;179.93;8.25;;;;;;;-145.82;100.00;61645.16;4958552;28;20035;-69
2022/01/16 02:10:20;;;;;;;262.17;9.55;;;;;;;-145.82;100.00;61645.16;4964109;28;20295;-70
2022/01/16 02:12:49;;;;;;;303.77;11.05;;;;;;;-145.82;100.00;61645.16;4962247;28;20482;-70
2022/01/16 02:32:25;;;;;;;68.15;5.72;;;;;;;-145.82;100.00;61645.16;4966087;28;20597;-68
2022/01/16 02:34:47;;;;;;;172.77;8.48;;;;;;;-145.82;100.00;61645.16;4966490;28;20042;-68
2022/01/16 02:37:15;;;;;;;56.35;4.25;;;;;;;-145.82;100.00;61645.16;4964577;28;20035;-69
2022/01/16 02:39:47;;;;;;;49.72;4.57;;;;;;;-145.82;100.00;61645.16;4964550;28;20039;-69
2022/01/16 02:42:13;;;;;;;99.95;5.63;;;;;;;-145.82;100.00;61645.16;4965900;28;20335;-68
2022/01/16 02:44:46;;;;;;;113.72;5.95;;;;;;;-145.82;100.00;61645.16;4980696;28;20728;-68
2022/01/16 02:47:14;;;;;;;174.18;13.05;;;;;;;-145.82;100.00;61645.16;4964956;28;20034;-69
2022/01/16 02:49:44;;;;;;;159.57;9.10;;;;;;;-145.82;100.00;61645.16;4966768;28;20046;-69
2022/01/16 02:52:12;;;;;;;73.60;5.65;;;;;;;-145.82;100.00;61645.16;4964279;28;20057;-70
2022/01/16 02:54:40;;;;;;;56.40;4.63;;;;;;;-145.82;100.00;61645.16;4966085;28;20038;-69
2022/01/16 02:57:09;;;;;;;133.65;7.75;;;;;;;-145.82;100.00;61645.16;4966051;28;20047;-68
2022/01/16 02:59:35;;;;;;;157.77;7.50;;;;;;;-145.82;100.00;61645.16;4964670;28;20406;-70
2022/01/16 03:02:01;;;;;;;193.45;11.82;;;;;;;-145.82;100.00;61645.16;4964621;28;20389;-70
2022/01/16 03:04:28;;;;;;;97.00;6.80;;;;;;;-145.82;100.00;61645.16;4965666;28;20069;-70
2022/01/16 03:06:55;;;;;;;346.77;14.10;;;;;;;-145.82;100.00;61645.16;4963598;28;20093;-69
2022/01/16 03:09:21;;;;;;;223.90;10.90;;;;;;;-145.82;100.00;61645.16;4964914;28;20386;-69
2022/01/16 03:11:49;;;;;;;125.25;10.32;;;;;;;-145.82;100.00;61645.16;4967013;28;20038;-68
2022/01/16 03:14:21;;;;;;;176.30;12.13;;;;;;;-145.82;100.00;61645.16;4964260;28;20037;-68
2022/01/16 03:16:50;;;;;;;170.88;9.60;;;;;;;-145.82;100.00;61645.16;4964608;28;20500;-70
2022/01/16 03:22:04;;;;;;;184.43;10.63;;;;;;;-145.82;100.00;61645.16;4965076;28;20045;-70
2022/01/16 03:24:37;;;;;;;205.93;11.65;;;;;;;-145.82;100.00;61645.16;4964324;28;20473;-68
2022/01/16 03:27:09;;;;;;;265.73;13.25;;;;;;;-145.82;100.00;61645.16;4964938;28;20115;-68
2022/01/16 03:29:35;;;;;;;301.88;12.38;;;;;;;-145.82;100.00;61645.16;4965282;28;20093;-69
2022/01/16 03:32:02;;;;;;;192.90;12.30;;;;;;;-145.82;100.00;61645.16;4964554;28;20050;-69
2022/01/16 03:34:28;;;;;;;288.40;15.13;;;;;;;-145.82;100.00;61645.16;4965074;28;20073;-69
2022/01/16 03:36:54;;;;;;;466.30;16.13;;;;;;;-145.82;100.00;61645.16;4965153;28;20707;-70
2022/01/16 03:39:20;;;;;;;122.78;6.43;;;;;;;-145.82;100.00;61645.16;4963930;28;20043;-68
2022/01/16 03:41:46;;;;;;;305.73;13.55;;;;;;;-145.82;100.00;61645.16;4963926;28;20027;-70
2022/01/16 03:44:11;;;;;;;282.40;13.98;;;;;;;-145.82;100.00;61645.16;4964750;28;20046;-70
2022/01/16 03:46:39;;;;;;;330.35;13.10;;;;;;;-145.82;100.00;61645.16;4963813;28;20061;-69
2022/01/16 03:49:20;;;;;;;339.40;18.77;;;;;;;-145.82;100.00;61645.16;4964374;28;20038;-68
2022/01/16 03:51:48;;;;;;;323.60;12.30;;;;;;;-145.82;100.00;61645.16;4964136;28;20134;-69
2022/01/16 03:54:16;;;;;;;434.98;15.10;;;;;;;-145.82;100.00;61645.16;4962691;28;20538;-69
2022/01/16 03:56:42;;;;;;;408.58;16.48;;;;;;;-145.82;100.00;61645.16;4963872;28;20736;-70
2022/01/16 03:59:08;;;;;;;144.30;7.85;;;;;;;-145.82;100.00;61645.16;4963116;28;20030;-69
2022/01/16 04:01:34;;;;;;;290.05;10.73;;;;;;;-145.82;100.00;61645.16;4963881;28;20114;-71
2022/01/16 04:04:00;;;;;;;356.45;15.50;;;;;;;-145.82;100.00;61645.16;4980664;28;20050;-68
2022/01/16 04:06:26;;;;;;;374.27;13.55;;;;;;;-145.82;100.00;61645.16;4962563;28;20126;-69
2022/01/16 04:08:53;;;;;;;140.85;8.75;;;;;;;-145.82;100.00;61645.16;4963313;28;20233;-68
2022/01/16 04:11:20;;;;;;;330.60;12.25;;;;;;;-145.82;100.00;61645.16;4963969;28;20045;-70
2022/01/16 04:13:52;;;;;;;320.23;11.32;;;;;;;-145.82;100.00;61645.16;4963126;28;20031;-70
2022/01/16 04:16:20;;;;;;;343.50;17.73;;;;;;;-145.82;100.00;61645.16;4964645;28;20050;-70
2022/01/16 04:18:50;;;;;;;372.95;14.05;;;;;;;-145.82;100.00;61645.16;4964243;28;20035;-69
2022/01/16 04:21:20;;;;;;;297.23;13.15;;;;;;;-145.82;100.00;61645.16;4963401;28;20046;-69
2022/01/16 04:23:46;;;;;;;345.92;13.57;;;;;;;-145.82;100.00;61645.16;4963249;28;20815;-69
2022/01/16 04:26:12;;;;;;;368.63;16.10;;;;;;;-145.82;100.00;61645.16;4963063;28;20061;-70
2022/01/16 04:28:38;;;;;;;416.05;19.67;;;;;;;-145.82;100.00;61645.16;4963131;28;20031;-69
2022/01/16 04:31:03;;;;;;;500.00;22.95;;;;;;;-145.82;100.00;61645.16;4961917;28;20093;-68
2022/01/16 04:33:29;;;;;;;507.63;19.52;;;;;;;-145.82;100.00;61645.16;4965098;28;20061;-69
2022/01/16 04:35:55;;;;;;;556.20;22.60;;;;;;;-145.82;100.00;61645.16;4965335;28;20390;-69
2022/01/16 04:38:22;;;;;;;621.67;25.15;;;;;;;-145.82;100.00;61645.16;4962497;28;20559;-70
2022/01/16 04:43:47;;;;;;;568.63;25.55;;;;;;;-145.82;100.00;61645.16;4961838;28;20070;-69
2022/01/16 04:46:16;;;;;;;;;;;;;;;-145.82;100.00;61645.16;4963283;28;20050;-68
2022/01/16 04:48:42;;;;;;;426.77;18.00;;;;;;;-145.82;100.00;61645.16;4963135;28;20387;-69
2022/01/16 04:51:08;;;;;;;547.88;18.23;;;;;;;-145.82;100.00;61645.16;4961793;28;20422;-69
2022/01/16 04:53:34;;;;;;;449.50;17.13;;;;;;;-145.82;100.00;61645.16;4963135;28;20378;-69
2022/01/16 04:55:59;;;;;;;449.33;20.23;;;;;;;-145.82;100.00;61645.16;4963140;28;20362;-68
2022/01/16 04:58:25;;;;;;;564.75;23.52;;;;;;;-145.82;100.00;61645.16;4961646;28;20073;-69
2022/01/16 05:00:50;;;;;;;582.30;26.60;;;;;;;-145.82;100.00;61645.16;4962195;28;20047;-69
2022/01/16 05:03:16;;;;;;;468.15;20.85;;;;;;;-145.82;100.00;61645.16;4963751;28;20038;-69
2022/01/16 05:05:41;;;;;;;306.02;17.30;;;;;;;-145.82;100.00;61645.16;4962961;28;20377;-69
2022/01/16 05:08:07;;;;;;;220.43;13.88;;;;;;;-145.82;100.00;61645.16;4976217;28;20045;-70
2022/01/16 05:10:33;;;;;;;373.65;21.00;;;;;;;-145.82;100.00;61645.16;4964200;28;20034;-68
2022/01/16 05:13:25;;;;;;;138.82;11.45;;;;;;;-145.82;100.00;61645.16;4962095;28;20085;-71
2022/01/16 05:18:28;;;;;;;109.28;8.82;;;;;;;-145.82;100.00;61645.16;4962805;28;20045;-69
2022/01/16 05:20:53;;;;;;;139.77;10.82;;;;;;;-145.82;100.00;61645.16;4963349;28;20039;-70
2022/01/16 05:23:19;;;;;;;46.22;5.07;;;;;;;-145.82;100.00;61645.16;4962150;28;20528;-69
2022/01/16 05:25:44;;;;;;;26.60;5.70;;;;;;;-145.82;100.00;61645.16;4962047;28;20019;-70
2022/01/16 05:28:10;;;;;;;59.08;7.03;;;;;;;-145.82;100.00;61645.16;4962416;28;20101;-70
2022/01/16 05:30:35;;;;;;;43.00;6.22;;;;;;;-145.82;100.00;61645.16;4962787;28;20045;-69
2022/01/16 05:33:01;;;;;;;18.90;7.10;;;;;;;-145.82;100.00;61645.16;4963149;28;20474;-68
2022/01/16 05:35:26;;;;;;;39.90;7.30;;;;;;;-145.82;100.00;61645.16;4964108;28;20037;-70
2022/01/16 05:37:52;;;;;;;22.13;8.07;;;;;;;-145.82;100.00;61645.16;4961205;28;20322;-69
2022/01/16 05:40:17;;;;;;;30.00;7.68;;;;;;;-145.82;100.00;61645.16;4963611;28;20319;-70
2022/01/16 05:42:43;;;;;;;41.60;6.93;;;;;;;-145.82;100.00;61645.16;4964560;28;20363;-69
2022/01/16 05:45:08;;;;;;;28.77;6.35;;;;;;;-145.82;100.00;61645.16;4961628;28;20055;-70
2022/01/16 05:47:34;;;;;;;82.80;7.65;;;;;;;-145.82;100.00;61645.16;4963670;28;20073;-69
2022/01/16 05:49:59;;;;;;;25.05;6.47;;;;;;;-145.82;100.00;61645.16;4962978;28;20037;-69
2022/01/16 05:52:25;;;;;;;46.83;7.85;;;;;;;-145.82;100.00;61645.16;4961750;28;20023;-70
2022/01/16 05:54:50;;;;;;;42.67;8.25;;;;;;;-145.82;100.00;61645.16;4962782;28;20047;-70
2022/01/16 05:57:16;;;;;;;53.47;7.93;;;;;;;-145.82;100.00;61645.16;4963561;28;20157;-68
2022/01/16 05:59:41;;;;;;;62.13;7.38;;;;;;;-145.82;100.00;61645.16;4961813;28;20512;-70
2022/01/16 06:02:07;;;;;;;43.35;7.53;;;;;;;-145.82;100.00;61645.16;4961627;28;20298;-68
2022/01/16 06:04:32;;;;;;;86.05;8.50;;;;;;;-145.82;100.00;61645.16;4963013;28;20414;-70
2022/01/16 06:06:59;;;;;;;71.47;9.90;;;;;;;-145.82;100.00;61645.16;4963973;28;20386;-68
2022/01/16 06:09:26;;;;;;;58.05;8.40;;;;;;;-145.82;100.00;61645.16;4966369;28;20041;-70
2022/01/16 06:11:53;;;;;;;48.78;7.60;;;;;;;-145.82;100.00;61645.16;4965977;28;20042;-68
2022/01/16 06:14:20;;;;;;;81.93;8.43;;;;;;;-145.82;100.00;61645.16;4966965;28;20101;-69
2022/01/16 06:16:45;;;;;;;126.38;8.63;;;;;;;-145.82;100.00;61645.16;4965866;28;20406;-69
2022/01/16 06:19:11;;;;;;;127.75;10.60;;;;;;;-145.82;100.00;61645.16;4966246;28;20050;-68
2022/01/16 06:21:36;;;;;;;92.65;9.07;;;;;;;-145.82;100.00;61645.16;4966552;28;20048;-70
2022/01/16 06:24:03;;;;;;;209.40;10.60;;;;;;;-145.82;100.00;61645.16;4965020;28;20092;-70
2022/01/16 06:26:29;;;;;;;135.40;14.13;;;;;;;-145.82;100.00;61645.16;4965358;28;20038;-70
2022/01/16 06:28:55;;;;;;;180.75;11.05;;;;;;;-145.82;100.00;61645.16;4963339;28;20043;-70
2022/01/16 06:31:20;;;;;;;99.38;9.07;;;;;;;-145.82;100.00;61645.16;4962788;28;20388;-69
2022/01/16 06:33:46;;;;;;;125.63;10.25;;;;;;;-145.82;100.00;61645.16;4964306;28;20126;-69
2022/01/16 06:36:12;;;;;;;192.88;10.30;;;;;;;-145.82;100.00;61645.16;4964385;28;20046;-69
2022/01/16 06:38:37;;;;;;;199.00;13.18;;;;;;;-145.82;100.00;61645.16;4962168;28;20192;-69
2022/01/16 06:41:03;;;;;;;240.43;11.70;;;;;;;-145.82;100.00;61645.16;4965024;28;20047;-70
2022/01/16 06:43:28;;;;;;;268.00;14.07;;;;;;;-145.82;100.00;61645.16;4963328;28;20572;-69
2022/01/16 06:45:54;;;;;;;174.85;10.73;;;;;;;-145.82;100.00;61645.16;4964549;28;20196;-68
2022/01/16 06:48:20;;;;;;;186.68;12.18;;;;;;;-145.82;100.00;61645.16;4964349;28;20351;-70
2022/01/16 06:50:46;;;;;;;83.57;11.32;;;;;;;-145.82;100.00;61645.16;4963430;28;20037;-69
2022/01/16 06:53:11;;;;;;;57.15;10.45;;;;;;;-145.82;100.00;61645.16;4963272;28;20382;-69
2022/01/16 06:55:37;;;;;;;125.65;12.88;;;;;;;-145.82;100.00;61645.16;4963879;28;20521;-69
2022/01/16 06:58:03;;;;;;;59.58;11.25;;;;;;;-145.82;100.00;61645.16;4961011;28;20548;-69
2022/01/16 07:00:28;;;;;;;60.97;10.73;;;;;;;-145.82;100.00;61645.16;4963220;28;20058;-68
2022/01/16 07:02:54;;;;;;;45.08;9.98;;;;;;;-145.82;100.00;61645.16;4962907;28;20125;-69
2022/01/16 07:05:19;;;;;;;46.42;10.52;;;;;;;-145.82;100.00;61645.16;4963928;28;20040;-70
2022/01/16 07:07:45;;;;;;;69.95;11.15;;;;;;;-145.82;100.00;61645.16;4962604;28;20043;-71
2022/01/16 07:10:10;;;;;;;40.63;10.02;;;;;;;-145.82;100.00;61645.16;4964739;28;20170;-70
2022/01/16 07:12:36;;;;;;;56.25;11.57;;;;;;;-145.82;100.00;61645.16;4963182;28;20039;-69
2022/01/16 07:15:01;;;;;;;37.35;10.52;;;;;;;-145.82;100.00;61645.16;4961868;28;20262;-68
2022/01/16 07:17:27;;;;;;;61.53;11.30;;;;;;;-145.82;100.00;61645.16;4963831;28;20425;-69
2022/01/16 07:19:52;;;;;;;50.25;10.32;;;;;;;-145.82;100.00;61645.16;4962576;28;20058;-72
2022/01/16 07:22:21;;;;;;;70.65;11.90;;;;;;;-145.82;100.00;61645.16;4963951;28;20139;-70
2022/01/16 07:24:50;;;;;;;143.60;13.88;;;;;;;-145.82;100.00;61645.16;4964075;28;20043;-69
2022/01/16 07:27:16;;;;;;;76.80;11.63;;;;;;;-145.82;100.00;61645.16;4962538;28;20030;-69
2022/01/16 07:29:41;;;;;;;100.15;14.32;;;;;;;-145.82;100.00;61645.16;4962401;28;20323;-68
2022/01/16 07:32:07;;;;;;;53.03;11.18;;;;;;;-145.82;100.00;61645.16;4962497;28;20043;-69
2022/01/16 07:34:33;;;;;;;86.03;13.57;;;;;;;-145.82;100.00;61645.16;4963835;28;20107;-69
2022/01/16 07:36:58;;;;;;;78.63;11.48;;;;;;;-145.82;100.00;61645.16;4963257;28;20046;-69
2022/01/16 07:39:24;;;;;;;134.55;14.77;;;;;;;-145.82;100.00;61645.16;4962363;28;20038;-69
2022/01/16 07:41:49;;;;;;;89.65;17.77;;;;;;;-145.82;100.00;61645.16;4963898;28;20039;-70
2022/01/16 07:44:19;;;;;;;63.92;12.48;;;;;;;-145.82;100.00;61645.16;4965435;28;20132;-69
2022/01/16 07:46:45;;;;;;;52.58;11.98;;;;;;;-145.82;100.00;61645.16;4961693;28;20114;-71
2022/01/16 07:49:10;;;;;;;69.65;13.07;;;;;;;-145.82;100.00;61645.16;4963284;28;20039;-69
2022/01/16 07:51:36;;;;;;;70.20;13.98;;;;;;;-145.82;100.00;61645.16;4964143;28;20027;-69
2022/01/16 07:54:02;;;;;;;67.47;14.23;;;;;;;-145.82;100.00;61645.16;4963416;28;20034;-68
2022/01/16 07:56:27;;;;;;;70.78;13.98;;;;;;;-145.82;100.00;61645.16;4962098;28;20709;-69
2022/01/16 07:58:53;;;;;;;59.78;14.52;;;;;;;-145.82;100.00;61645.16;4960473;28;20130;-71
2022/01/16 08:01:18;;;;;;;64.72;17.25;;;;;;;-145.82;100.00;61645.16;4960421;28;20047;-69
2022/01/16 08:03:44;;;;;;;52.30;15.85;;;;;;;-145.82;100.00;61645.16;4963911;28;20118;-71
2022/01/16 08:06:10;;;;;;;33.58;9.40;;;;;;;-145.82;100.00;61645.16;4964750;28;20126;-69
2022/01/16 08:08:37;;;;;;;58.08;16.17;;;;;;;-145.82;100.00;61645.16;4977160;28;20533;-69
2022/01/16 08:11:03;;;;;;;62.83;16.35;;;;;;;-145.82;100.00;61645.16;4963111;28;20046;-70
2022/01/16 08:13:28;;;;;;;39.28;11.80;;;;;;;-145.82;100.00;61645.16;4965120;28;20359;-69
2022/01/16 08:15:54;;;;;;;37.03;13.10;;;;;;;-145.82;100.00;61645.16;4964916;28;20042;-69
2022/01/16 08:18:19;;;;;;;19.13;8.18;;;;;;;-145.82;100.00;61645.16;4977292;28;20069;-69
2022/01/16 08:20:45;;;;;;;28.55;9.50;;;;;;;-145.82;100.00;61645.16;4963655;28;20406;-68
2022/01/16 08:23:11;;;;;;;46.10;14.68;;;;;;;-145.82;100.00;61645.16;4961813;28;20458;-69
2022/01/16 08:25:36;;;;;;;50.53;15.68;;;;;;;-145.82;100.00;61645.16;4962668;28;20287;-70
2022/01/16 08:28:02;;;;;;;44.35;14.40;;;;;;;-145.82;100.00;61645.16;4960715;28;20104;-68
2022/01/16 08:30:28;;;;;;;53.03;15.43;;;;;;;-145.82;100.00;61645.16;4963391;28;20054;-68
2022/01/16 08:32:53;;;;;;;28.88;11.88;;;;;;;-145.82;100.00;61645.16;4960035;28;20106;-69
2022/01/16 08:35:20;;;;;;;62.25;16.75;;;;;;;-145.82;100.00;61645.16;4963447;28;20049;-70
2022/01/16 08:37:45;;;;;;;49.92;18.92;;;;;;;-145.82;100.00;61645.16;4962147;28;20340;-69
2022/01/16 08:40:12;;;;;;;53.60;19.20;;;;;;;-145.82;100.00;61645.16;4963323;28;20392;-71
2022/01/16 08:42:40;;;;;;;47.40;14.60;;;;;;;-145.82;100.00;61645.16;4962990;28;20039;-70
2022/01/16 08:45:06;;;;;;;59.10;18.38;;;;;;;-145.82;100.00;61645.16;4964640;28;20038;-68
2022/01/16 08:47:32;;;;;;;54.70;17.73;;;;;;;-145.82;100.00;61645.16;4961137;28;20045;-69
2022/01/16 08:49:58;;;;;;;51.92;17.08;;;;;;;-145.82;100.00;61645.16;4962085;28;20030;-70
2022/01/16 08:52:26;;;;;;;49.08;14.95;;;;;;;-145.82;100.00;61645.16;4960528;28;20034;-68
2022/01/16 08:54:51;;;;;;;51.60;17.50;;;;;;;-145.82;100.00;61645.16;4961322;28;20051;-69
2022/01/16 08:57:17;;;;;;;37.15;14.00;;;;;;;-145.82;100.00;61645.16;4961088;28;20445;-69
2022/01/16 08:59:42;;;;;;;20.60;7.80;;;;;;;-145.82;100.00;61645.16;4961293;28;20038;-69
2022/01/16 09:02:08;;;;;;;45.50;15.07;;;;;;;-145.82;100.00;61645.16;4960484;28;20062;-68
2022/01/16 09:04:34;;;;;;;46.38;16.95;;;;;;;-145.82;100.00;61645.16;4960800;28;20038;-68
2022/01/16 09:06:59;;;;;;;42.58;16.13;;;;;;;-145.82;100.00;61645.16;4959185;28;20098;-68
2022/01/16 09:09:25;;;;;;;64.80;18.13;;;;;;;-145.82;100.00;61645.16;4962108;28;20034;-69
2022/01/16 09:11:50;;;;;;;47.33;16.90;;;;;;;-145.82;100.00;61645.16;4961642;28;20042;-68
2022/01/16 09:14:16;;;;;;;40.40;15.75;;;;;;;-145.82;100.00;61645.16;4960147;28;20042;-70
2022/01/16 09:16:42;;;;;;;44.45;15.10;;;;;;;-145.82;100.00;61645.16;4964166;28;20041;-70
2022/01/16 09:19:07;;;;;;;49.10;16.90;;;;;;;-145.82;100.00;61645.16;4962782;28;20042;-70
2022/01/16 09:21:33;;;;;;;58.25;20.20;;;;;;;-145.82;100.00;61645.16;4963218;28;20050;-68
2022/01/16 09:23:58;;;;;;;59.25;19.00;;;;;;;-145.82;100.00;61645.16;4961570;28;20318;-69
2022/01/16 09:26:26;;;;;;;55.80;18.77;;;;;;;-145.82;100.00;61645.16;4963424;28;20475;-70
2022/01/16 09:28:51;;;;;;;60.40;19.35;;;;;;;-145.82;100.00;61645.16;4962324;28;20486;-69
2022/01/16 09:31:17;;;;;;;45.78;15.68;;;;;;;-145.82;100.00;61645.16;4963089;28;20070;-70
2022/01/16 09:33:42;;;;;;;63.72;20.17;;;;;;;-145.82;100.00;61645.16;4963226;28;20043;-70
2022/01/16 09:36:09;;;;;;;60.58;19.42;;;;;;;-145.82;100.00;61645.16;4964361;28;20043;-69
2022/01/16 09:38:39;;;;;;;49.20;17.13;;;;;;;-145.82;100.00;61645.16;4961418;28;20038;-71
2022/01/16 09:41:05;;;;;;;43.20;15.73;;;;;;;-145.82;100.00;61645.16;4962106;28;20362;-70
2022/01/16 09:43:33;;;;;;;65.20;18.02;;;;;;;-145.82;100.00;61645.16;4963066;28;20039;-69
2022/01/16 09:46:00;;;;;;;59.08;19.00;;;;;;;-145.82;100.00;61645.16;4962978;28;20031;-70
2022/01/16 09:48:25;;;;;;;49.95;16.48;;;;;;;-145.82;100.00;61645.16;4962491;28;20812;-70
2022/01/16 09:50:51;;;;;;;63.78;18.77;;;;;;;-145.82;100.00;61645.16;4964571;28;20122;-69
2022/01/16 09:53:16;;;;;;;51.33;17.73;;;;;;;-145.82;100.00;61645.16;4961757;28;20086;-68
2022/01/16 09:55:42;;;;;;;49.90;17.92;;;;;;;-145.82;100.00;61645.16;4963568;28;20533;-69
2022/01/16 09:58:08;;;;;;;53.33;17.23;;;;;;;-145.82;100.00;61645.16;4961933;28;20378;-68
2022/01/16 10:00:34;;;;;;;55.10;17.35;;;;;;;-145.82;100.00;61645.16;4963483;28;20070;-69
2022/01/16 10:03:00;;;;;;;42.53;13.18;;;;;;;-145.82;100.00;61645.16;4963255;28;20043;-70
2022/01/16 10:05:36;;;;;;;47.13;16.48;;;;;;;-145.82;100.00;61645.16;4963001;28;20035;-69
2022/01/16 10:08:08;;;;;;;46.20;17.35;;;;;;;-145.82;100.00;61645.16;4961849;28;20366;-69
2022/01/16 10:10:39;;;;;;;43.63;14.25;;;;;;;-145.82;100.00;61645.16;4964393;28;20042;-69
2022/01/16 10:13:54;;;;;;;41.60;15.52;;;;;;;-145.82;100.00;61645.16;4961787;28;20350;-70
2022/01/16 10:16:35;;;;;;;20.65;8.07;;;;;;;-145.82;100.00;61645.16;4948167;28;20065;-69
2022/01/16 10:19:01;;;;;;;34.95;10.75;;;;;;;-145.82;100.00;61645.16;4962723;28;20039;-69
2022/01/16 10:21:32;;;;;;;55.85;17.70;;;;;;;-145.82;100.00;61645.16;4977250;28;20054;-69
2022/01/16 10:23:58;;;;;;;48.47;18.08;;;;;;;-145.82;100.00;61645.16;4962565;28;20039;-70
2022/01/16 10:26:23;;;;;;;34.13;12.02;;;;;;;-145.82;100.00;61645.16;4962435;28;20045;-69
2022/01/16 10:28:51;;;;;;;45.20;16.60;;;;;;;-145.82;100.00;61645.16;4962429;28;20046;-71
2022/01/16 10:31:19;;;;;;;62.72;19.48;;;;;;;-145.82;100.00;61645.16;4960829;28;20057;-69
2022/01/16 10:33:45;;;;;;;58.72;18.55;;;;;;;-145.82;100.00;61645.16;4980103;28;20031;-70
2022/01/16 10:36:11;;;;;;;57.60;18.77;;;;;;;-145.82;100.00;61645.16;4962587;28;20334;-70
2022/01/16 10:38:36;;;;;;;60.75;17.65;;;;;;;-145.82;100.00;61645.16;4961093;28;20141;-69
2022/01/16 10:41:02;;;;;;;55.55;15.73;;;;;;;-145.82;100.00;61645.16;4961588;28;20042;-70
2022/01/16 10:43:44;;;;;;;60.63;19.70;;;;;;;-145.82;100.00;61645.16;4961391;28;20037;-69
2022/01/16 10:46:12;;;;;;;56.58;19.67;;;;;;;-145.82;100.00;61645.16;4960811;28;20163;-69
2022/01/16 10:48:38;;;;;;;61.42;20.45;;;;;;;-145.82;100.00;61645.16;4961314;28;20038;-69
2022/01/16 10:51:04;;;;;;;54.55;18.88;;;;;;;-145.82;100.00;61645.16;4962719;28;20035;-70
2022/01/16 10:53:32;;;;;;;64.68;19.75;;;;;;;-145.82;100.00;61645.16;4964715;28;20101;-71
2022/01/16 10:55:59;;;;;;;51.17;17.90;;;;;;;-145.82;100.00;61645.16;4966825;28;20309;-68
2022/01/16 10:58:29;;;;;;;50.88;16.15;;;;;;;-145.82;100.00;61645.16;4965989;28;20097;-69
2022/01/16 11:01:00;;;;;;;59.72;18.95;;;;;;;-145.82;100.00;61645.16;4964410;28;20043;-69
2022/01/16 11:03:27;;;;;;;62.05;19.48;;;;;;;-145.82;100.00;61645.16;4965935;28;20038;-69
2022/01/16 11:05:54;;;;;;;56.30;19.13;;;;;;;-145.82;100.00;61645.16;4966164;28;20030;-71
2022/01/16 11:08:22;;;;;;;58.53;19.77;;;;;;;-145.82;100.00;61645.16;4979228;28;20043;-69
2022/01/16 11:10:50;;;;;;;63.35;20.65;;;;;;;-145.82;100.00;61645.16;4966056;28;20506;-68
2022/01/16 11:13:21;;;;;;;56.95;18.48;;;;;;;-145.82;100.00;61645.16;4979564;28;20382;-69
2022/01/16 11:15:50;;;;;;;60.38;19.35;;;;;;;-145.82;100.00;61645.16;4965981;28;20043;-69
2022/01/16 11:18:18;;;;;;;35.10;12.10;;;;;;;-145.82;100.00;61645.16;4964294;28;20035;-68
2022/01/16 11:20:52;;;;;;;63.42;19.80;;;;;;;-145.82;100.00;61645.16;4965179;28;20483;-70
2022/01/16 11:25:55;;;;;;;58.25;18.60;;;;;;;-145.82;100.00;61645.16;4965472;28;20312;-70
2022/01/16 11:28:23;;;;;;;75.28;22.83;;;;;;;-145.82;100.00;61645.16;4966293;28;20121;-70
2022/01/16 11:30:55;;;;;;;73.72;23.90;;;;;;;-145.82;100.00;61645.16;4963984;28;20042;-70
2022/01/16 11:33:22;;;;;;;67.85;22.42;;;;;;;-145.82;100.00;61645.16;4964141;28;20404;-69
2022/01/16 11:35:52;;;;;;;59.45;19.05;;;;;;;-145.82;100.00;61645.16;4963986;28;20243;-69